Time;durP1;ratioP1;P1;durP2;ratioP2;P2;SDS_P1;SDS_P2;PMS_P1;PMS_P2;Temp;Humidity;BMP_temperature;BMP_pressure;BME280_temperature;BME280_humidity;BME280_pressure;Samples;Min_cycle;Max_cycle;Signal;HPM_P1;HPM_P2
2023/04/18 00:01:43;;;;;;;7.60;4.22;;;;;;;10.98;96.56;94056.78;5137247;27;20288;-75
2023/04/18 00:04:10;;;;;;;7.85;4.78;;;;;;;10.93;96.63;94059.75;5138162;27;20200;-74
2023/04/18 00:06:37;;;;;;;7.82;5.00;;;;;;;10.94;96.69;94053.19;5145089;27;20201;-75
2023/04/18 00:09:04;;;;;;;6.88;4.53;;;;;;;11.02;96.04;94057.69;5144345;27;20315;-75
2023/04/18 00:11:30;;;;;;;8.57;4.78;;;;;;;10.95;96.84;94057.47;5132115;27;20703;-75
2023/04/18 00:13:58;;;;;;;8.13;4.78;;;;;;;10.94;97.32;94055.91;5132042;27;20205;-75
2023/04/18 00:16:27;;;;;;;8.65;4.78;;;;;;;10.95;97.28;94060.97;5144034;27;20228;-76
2023/04/18 00:18:54;;;;;;;10.15;4.70;;;;;;;10.83;97.43;94066.44;5144910;27;20216;-74
2023/04/18 00:21:22;;;;;;;9.65;4.55;;;;;;;10.75;98.38;94069.28;5138948;27;20204;-75
2023/04/18 00:23:48;;;;;;;8.68;4.72;;;;;;;10.77;98.14;94067.81;5136815;27;20290;-73
2023/04/18 00:26:15;;;;;;;9.48;5.28;;;;;;;10.80;97.87;94066.31;5141907;27;20205;-74
2023/04/18 00:28:42;;;;;;;7.40;4.72;;;;;;;10.77;98.48;94058.91;5143718;27;20239;-74
2023/04/18 00:31:09;;;;;;;7.10;4.57;;;;;;;10.71;98.84;94060.25;5138749;27;20305;-74
2023/04/18 00:33:37;;;;;;;7.82;4.50;;;;;;;10.68;99.46;94065.22;5132019;27;20204;-76
2023/04/18 00:36:05;;;;;;;9.20;4.20;;;;;;;10.64;99.69;94056.22;5141140;27;20197;-73
2023/04/18 00:38:31;;;;;;;6.85;3.97;;;;;;;10.62;100.00;94053.06;5129891;27;20208;-74
2023/04/18 00:40:58;;;;;;;6.72;4.43;;;;;;;10.71;99.92;94058.34;5139161;27;20245;-73
2023/04/18 00:43:25;;;;;;;5.95;4.22;;;;;;;10.72;99.96;94048.28;5137173;27;20205;-75
2023/04/18 00:45:52;;;;;;;9.35;4.68;;;;;;;10.71;100.00;94052.13;5141272;27;20212;-74
2023/04/18 00:48:20;;;;;;;6.43;4.00;;;;;;;10.63;100.00;94057.34;5130009;27;20236;-74
2023/04/18 00:50:48;;;;;;;6.50;3.97;;;;;;;10.63;100.00;94048.44;5139765;27;20207;-73
2023/04/18 00:53:16;;;;;;;7.60;4.30;;;;;;;10.52;100.00;94050.03;5136449;27;20238;-73
2023/04/18 00:55:43;;;;;;;7.32;4.10;;;;;;;10.57;100.00;94042.44;5138597;27;20242;-73
2023/04/18 00:58:12;;;;;;;8.07;4.60;;;;;;;10.61;100.00;94042.56;5134121;27;20211;-73
2023/04/18 01:00:38;;;;;;;8.57;4.97;;;;;;;10.55;100.00;94039.28;5138205;27;20250;-73
2023/04/18 01:03:07;;;;;;;6.95;4.20;;;;;;;10.47;100.00;94048.34;5143426;27;20636;-74
2023/04/18 01:05:35;;;;;;;7.93;4.15;;;;;;;10.38;100.00;94036.84;5129214;27;20224;-73
2023/04/18 01:08:03;;;;;;;5.70;3.85;;;;;;;10.25;100.00;94038.00;5134214;27;20234;-73
2023/04/18 01:10:30;;;;;;;6.25;3.72;;;;;;;10.33;100.00;94037.06;5136659;27;20750;-73
2023/04/18 01:13:11;;;;;;;6.55;3.67;;;;;;;10.26;100.00;94042.25;5135154;27;20303;-74
2023/04/18 01:15:40;;;;;;;5.93;3.85;;;;;;;10.19;100.00;94040.13;5134072;27;20751;-73
2023/04/18 01:18:07;;;;;;;7.10;3.78;;;;;;;10.27;100.00;94033.00;5129068;27;20227;-73
2023/04/18 01:20:35;;;;;;;6.80;4.00;;;;;;;10.43;100.00;94043.94;5142820;27;20245;-74
2023/04/18 01:23:04;;;;;;;6.97;3.92;;;;;;;10.44;100.00;94038.19;5138056;27;20390;-74
2023/04/18 01:25:33;;;;;;;6.70;4.03;;;;;;;10.39;100.00;94043.81;5135566;27;20695;-74
2023/04/18 01:28:00;;;;;;;8.50;4.13;;;;;;;10.23;100.00;94015.88;5140147;27;20298;-74
2023/04/18 01:30:27;;;;;;;7.25;4.82;;;;;;;10.34;100.00;94030.53;5135954;27;20230;-74
2023/04/18 01:32:54;;;;;;;6.93;4.68;;;;;;;10.36;100.00;94025.56;5140482;27;20215;-74
2023/04/18 01:35:21;;;;;;;9.43;5.15;;;;;;;10.40;100.00;94031.84;5142709;27;20225;-74
2023/04/18 01:37:48;;;;;;;12.80;5.07;;;;;;;10.33;100.00;94042.50;5138623;27;20214;-74
2023/04/18 01:40:15;;;;;;;9.32;5.32;;;;;;;10.32;100.00;94030.06;5135542;27;20291;-73
2023/04/18 01:42:43;;;;;;;11.27;6.43;;;;;;;10.16;100.00;94026.44;5139523;27;20197;-73
2023/04/18 01:45:12;;;;;;;11.35;6.28;;;;;;;10.10;100.00;94033.22;5142799;27;20203;-74
2023/04/18 01:47:38;;;;;;;14.35;6.18;;;;;;;10.12;100.00;94036.38;5128935;28;20308;-75
2023/04/18 01:50:06;;;;;;;10.35;5.45;;;;;;;10.14;100.00;94034.13;5132431;27;20208;-74
2023/04/18 01:52:33;;;;;;;12.98;7.25;;;;;;;10.29;100.00;94022.63;5138684;27;20207;-74
2023/04/18 01:55:02;;;;;;;11.95;6.70;;;;;;;10.40;100.00;94037.28;5142640;27;20204;-74
2023/04/18 01:57:29;;;;;;;13.05;6.18;;;;;;;10.37;100.00;94026.38;5139976;27;20223;-74
2023/04/18 01:59:57;;;;;;;9.68;5.47;;;;;;;10.34;100.00;94027.81;5135109;27;20209;-74
2023/04/18 02:02:24;;;;;;;8.52;4.80;;;;;;;10.35;100.00;94024.00;5138099;27;20608;-73
2023/04/18 02:04:50;;;;;;;6.75;4.55;;;;;;;10.31;100.00;94025.78;5142633;27;20201;-74
2023/04/18 02:07:17;;;;;;;11.95;5.63;;;;;;;10.24;100.00;94033.72;5128614;28;20208;-74
2023/04/18 02:09:44;;;;;;;8.50;4.75;;;;;;;10.17;100.00;94034.22;5133115;27;20227;-74
2023/04/18 02:12:11;;;;;;;8.77;4.85;;;;;;;10.24;100.00;94034.50;5137069;27;20229;-74
2023/04/18 02:14:38;;;;;;;9.30;5.35;;;;;;;10.23;100.00;94032.13;5128551;27;20201;-74
2023/04/18 02:17:06;;;;;;;8.82;5.93;;;;;;;10.31;100.00;94032.00;5141989;27;20204;-76
2023/04/18 02:19:33;;;;;;;10.20;6.00;;;;;;;10.36;100.00;94036.41;5128455;28;20193;-75
2023/04/18 02:22:00;;;;;;;11.88;5.95;;;;;;;10.47;100.00;94036.72;5128269;27;20212;-75
2023/04/18 02:24:27;;;;;;;12.45;7.10;;;;;;;10.36;100.00;94039.09;5142199;27;20211;-75
2023/04/18 02:26:53;;;;;;;11.65;6.53;;;;;;;10.16;100.00;94010.22;5145777;27;20197;-76
2023/04/18 02:29:20;;;;;;;19.38;7.55;;;;;;;10.32;100.00;94040.91;5147883;27;20228;-75
2023/04/18 02:31:47;;;;;;;9.30;5.97;;;;;;;10.25;100.00;94046.13;5138149;27;20283;-75
2023/04/18 02:34:15;;;;;;;12.55;6.35;;;;;;;10.16;100.00;94042.69;5132788;27;20273;-76
2023/04/18 02:36:42;;;;;;;15.48;6.97;;;;;;;10.20;100.00;94043.63;5146131;27;20283;-74
2023/04/18 02:39:09;;;;;;;12.45;7.05;;;;;;;10.25;100.00;94051.53;5132271;27;20205;-75
2023/04/18 02:41:38;;;;;;;13.45;6.68;;;;;;;10.25;100.00;94046.13;5145780;27;20211;-75
2023/04/18 02:44:05;;;;;;;11.43;6.50;;;;;;;10.25;100.00;94035.28;5140865;27;20196;-75
2023/04/18 02:46:32;;;;;;;14.77;6.90;;;;;;;10.29;100.00;94041.59;5138890;27;20558;-75
2023/04/18 02:48:59;;;;;;;13.00;6.95;;;;;;;10.37;100.00;94048.03;5143037;27;20228;-75
2023/04/18 02:51:27;;;;;;;10.13;5.80;;;;;;;10.25;100.00;94040.69;5145390;27;20589;-75
2023/04/18 02:53:55;;;;;;;10.45;5.95;;;;;;;10.19;100.00;94048.25;5141071;27;20565;-75
2023/04/18 02:56:22;;;;;;;12.93;5.90;;;;;;;9.98;100.00;94028.59;5138771;27;20633;-75
2023/04/18 02:58:49;;;;;;;9.23;5.30;;;;;;;9.86;100.00;94044.81;5142811;27;20208;-75
2023/04/18 03:01:17;;;;;;;9.30;4.97;;;;;;;9.87;100.00;94036.38;5145439;27;20682;-75
2023/04/18 03:03:44;;;;;;;8.50;4.93;;;;;;;9.77;100.00;94042.22;5139889;27;20284;-74
2023/04/18 03:06:11;;;;;;;7.57;4.47;;;;;;;9.67;100.00;94045.38;5134590;27;20201;-74
2023/04/18 03:08:39;;;;;;;9.55;5.45;;;;;;;9.59;100.00;94046.25;5141672;27;20757;-76
2023/04/18 03:11:07;;;;;;;6.25;3.97;;;;;;;9.48;100.00;94039.69;5145185;27;20236;-75
2023/04/18 03:13:34;;;;;;;8.13;3.75;;;;;;;9.41;100.00;94039.47;5142575;27;20192;-74
2023/04/18 03:16:01;;;;;;;8.95;4.30;;;;;;;9.38;100.00;94050.94;5133818;27;20205;-74
2023/04/18 03:18:28;;;;;;;7.00;4.22;;;;;;;9.22;100.00;94026.44;5131451;27;20201;-73
2023/04/18 03:20:54;;;;;;;6.80;4.50;;;;;;;9.36;100.00;94058.59;5145244;27;20276;-74
2023/04/18 03:23:21;;;;;;;9.35;5.03;;;;;;;9.28;100.00;94060.25;5143256;27;20197;-74
2023/04/18 03:25:49;;;;;;;11.50;5.35;;;;;;;9.30;100.00;94066.09;5137784;27;20203;-73
2023/04/18 03:28:16;;;;;;;11.35;6.25;;;;;;;9.24;100.00;94062.03;5139554;27;20229;-74
2023/04/18 03:30:43;;;;;;;13.93;6.38;;;;;;;9.30;100.00;94073.41;5141814;27;20196;-74
2023/04/18 03:33:13;;;;;;;12.07;6.70;;;;;;;9.24;100.00;94079.03;5139393;27;20204;-74
2023/04/18 03:35:40;;;;;;;15.45;6.65;;;;;;;9.17;100.00;94073.38;5130850;27;20213;-74
2023/04/18 03:38:11;;;;;;;13.70;7.05;;;;;;;9.27;100.00;94083.78;5130578;27;20307;-74
2023/04/18 03:40:38;;;;;;;9.18;4.78;;;;;;;9.04;100.00;94058.25;5138254;27;20193;-74
2023/04/18 03:43:07;;;;;;;11.60;6.85;;;;;;;9.24;100.00;94073.66;5136809;27;20572;-73
2023/04/18 03:45:34;;;;;;;10.07;5.93;;;;;;;9.17;100.00;94067.97;5133671;27;20193;-74
2023/04/18 03:48:00;;;;;;;10.90;6.65;;;;;;;9.16;100.00;94077.19;5133847;27;20214;-74
2023/04/18 03:50:28;;;;;;;9.98;5.55;;;;;;;9.07;100.00;94051.38;5130596;27;20203;-74
2023/04/18 03:52:55;;;;;;;11.57;6.53;;;;;;;9.15;100.00;94075.66;5131622;27;20292;-74
2023/04/18 03:55:21;;;;;;;13.85;6.78;;;;;;;9.14;100.00;94076.75;5138300;27;20197;-75
2023/04/18 03:57:48;;;;;;;12.48;6.75;;;;;;;9.17;100.00;94078.00;5136579;27;21349;-74
2023/04/18 04:00:17;;;;;;;18.67;8.65;;;;;;;9.06;100.00;94058.69;5139053;27;20311;-74
2023/04/18 04:02:44;;;;;;;14.18;8.50;;;;;;;9.26;100.00;94076.81;5137024;27;20689;-74
2023/04/18 04:05:11;;;;;;;13.05;8.00;;;;;;;9.27;100.00;94081.09;5136866;27;20740;-75
2023/04/18 04:07:38;;;;;;;18.35;8.85;;;;;;;9.25;100.00;94075.22;5137866;27;20221;-74
2023/04/18 04:10:06;;;;;;;14.32;8.65;;;;;;;9.28;100.00;94084.59;5140993;27;20217;-76
2023/04/18 04:12:33;;;;;;;16.02;8.82;;;;;;;9.25;100.00;94075.22;5135848;27;20208;-75
2023/04/18 04:15:00;;;;;;;18.20;9.50;;;;;;;9.38;100.00;94086.06;5139186;27;20197;-75
2023/04/18 04:17:28;;;;;;;11.95;6.35;;;;;;;9.26;100.00;94082.22;5134105;27;20208;-75
2023/04/18 04:19:55;;;;;;;13.73;6.97;;;;;;;9.27;100.00;94080.31;5140547;27;20203;-75
2023/04/18 04:22:22;;;;;;;17.52;8.48;;;;;;;9.46;100.00;94090.59;5133364;27;20239;-76
2023/04/18 04:24:49;;;;;;;13.88;7.95;;;;;;;9.60;100.00;94085.69;5130153;27;20242;-75
2023/04/18 04:27:17;;;;;;;17.02;8.68;;;;;;;9.50;100.00;94064.47;5145259;27;20809;-75
2023/04/18 04:29:44;;;;;;;20.30;10.75;;;;;;;9.57;100.00;94064.72;5134290;27;20216;-76
2023/04/18 04:32:11;;;;;;;21.00;10.95;;;;;;;9.82;100.00;94088.00;5145743;27;20219;-76
2023/04/18 04:34:40;;;;;;;20.80;10.10;;;;;;;10.02;100.00;94097.13;5129369;27;20201;-76
2023/04/18 04:37:08;;;;;;;21.08;10.85;;;;;;;10.02;100.00;94096.34;5133400;27;20223;-77
2023/04/18 04:39:34;;;;;;;19.35;10.48;;;;;;;10.10;100.00;94098.19;5138736;27;20735;-76
2023/04/18 04:42:03;;;;;;;23.45;11.23;;;;;;;9.88;100.00;94065.00;5143571;27;20201;-77
2023/04/18 04:44:30;;;;;;;22.90;10.82;;;;;;;9.98;100.00;94091.59;5141336;27;20291;-76
2023/04/18 04:46:56;;;;;;;25.63;13.13;;;;;;;10.01;100.00;94100.19;5136662;27;20232;-77
2023/04/18 04:49:23;;;;;;;20.27;9.93;;;;;;;9.94;100.00;94095.34;5137209;27;20312;-78
2023/04/18 04:51:52;;;;;;;20.88;11.73;;;;;;;9.79;100.00;94102.19;5129584;27;20317;-78
2023/04/18 04:54:19;;;;;;;24.05;12.70;;;;;;;9.76;100.00;94094.72;5142434;27;20200;-77
2023/04/18 04:56:45;;;;;;;24.63;11.05;;;;;;;9.99;100.00;94095.88;5135553;27;20556;-77
2023/04/18 04:59:12;;;;;;;21.58;11.50;;;;;;;9.96;100.00;94110.13;5137757;27;20247;-77
2023/04/18 05:01:39;;;;;;;18.42;9.77;;;;;;;10.13;100.00;94108.31;5142936;27;20236;-78
2023/04/18 05:04:06;;;;;;;18.80;9.82;;;;;;;10.15;100.00;94106.84;5141957;27;20200;-77
2023/04/18 05:06:33;;;;;;;23.95;12.20;;;;;;;10.26;100.00;94104.50;5130608;27;20257;-77
2023/04/18 05:09:02;;;;;;;19.45;9.57;;;;;;;10.36;100.00;94112.19;5129141;27;20725;-77
2023/04/18 05:11:28;;;;;;;17.20;8.35;;;;;;;10.27;100.00;94119.63;5149068;27;20224;-77
2023/04/18 05:13:55;;;;;;;16.67;7.95;;;;;;;10.18;100.00;94110.81;5136078;27;20656;-76
2023/04/18 05:16:22;;;;;;;14.77;8.10;;;;;;;10.25;100.00;94125.38;5143033;27;20201;-77
2023/04/18 05:18:49;;;;;;;17.77;9.45;;;;;;;10.28;100.00;94121.22;5143873;27;20200;-78
2023/04/18 05:21:15;;;;;;;19.58;10.00;;;;;;;10.37;100.00;94121.13;5136765;27;20196;-78
2023/04/18 05:23:42;;;;;;;16.58;9.07;;;;;;;10.43;100.00;94123.25;5149230;27;20802;-77
2023/04/18 05:26:10;;;;;;;19.85;10.40;;;;;;;10.47;100.00;94121.44;5136746;27;20681;-77
2023/04/18 05:28:37;;;;;;;17.77;9.95;;;;;;;10.46;100.00;94117.16;5135800;27;20213;-77
2023/04/18 05:31:04;;;;;;;17.65;10.73;;;;;;;10.50;100.00;94117.28;5139782;27;20195;-77
2023/04/18 05:33:31;;;;;;;20.35;10.00;;;;;;;10.46;100.00;94111.75;5135657;27;20227;-78
2023/04/18 05:35:58;;;;;;;17.95;8.73;;;;;;;10.44;100.00;94130.25;5141117;27;20322;-78
2023/04/18 05:38:25;;;;;;;18.48;10.25;;;;;;;10.42;100.00;94124.38;5130005;27;20201;-78
2023/04/18 05:40:54;;;;;;;16.73;8.85;;;;;;;10.59;100.00;94123.34;5140411;27;20214;-78
2023/04/18 05:43:22;;;;;;;16.10;9.15;;;;;;;10.76;100.00;94122.34;5145284;27;20224;-77
2023/04/18 05:45:51;;;;;;;16.17;9.35;;;;;;;10.88;100.00;94127.72;5150003;27;20338;-78
2023/04/18 05:48:17;;;;;;;17.33;7.88;;;;;;;10.82;100.00;94119.03;5135814;27;20205;-78
2023/04/18 05:50:44;;;;;;;13.80;7.07;;;;;;;11.03;100.00;94129.75;5149624;27;20296;-77
2023/04/18 05:53:11;;;;;;;21.75;10.82;;;;;;;11.06;100.00;94123.63;5135604;27;20193;-76
2023/04/18 05:55:39;;;;;;;16.17;8.95;;;;;;;11.09;100.00;94125.63;5140127;27;20225;-76
2023/04/18 05:58:06;;;;;;;14.63;7.30;;;;;;;10.69;98.35;94131.00;5146711;27;20200;-76
2023/04/18 06:00:34;;;;;;;11.23;6.47;;;;;;;10.75;99.96;94134.28;5141069;27;20254;-77
2023/04/18 06:03:01;;;;;;;14.45;7.25;;;;;;;10.52;97.87;94132.03;5133617;27;20438;-77
2023/04/18 06:05:28;;;;;;;9.13;5.68;;;;;;;10.61;99.20;94135.44;5144143;27;20200;-76
2023/04/18 06:07:55;;;;;;;13.60;6.82;;;;;;;10.66;99.97;94139.81;5140392;27;20200;-76
2023/04/18 06:10:22;;;;;;;10.70;6.45;;;;;;;10.75;100.00;94139.72;5143473;27;20233;-78
2023/04/18 06:12:49;;;;;;;10.85;6.65;;;;;;;10.93;99.98;94130.97;5146737;27;20189;-77
2023/04/18 06:15:15;;;;;;;18.73;7.85;;;;;;;10.95;100.00;94136.84;5145312;27;20204;-77
2023/04/18 06:17:44;;;;;;;16.60;8.90;;;;;;;10.86;100.00;94135.41;5135763;27;20208;-77
2023/04/18 06:20:11;;;;;;;17.35;7.60;;;;;;;10.88;100.00;94133.16;5133919;27;20201;-77
2023/04/18 06:22:38;;;;;;;18.45;8.75;;;;;;;11.13;100.00;94129.25;5138374;27;20204;-75
2023/04/18 06:25:07;;;;;;;18.80;10.23;;;;;;;11.53;98.36;94126.50;5142132;27;20222;-75
2023/04/18 06:27:34;;;;;;;16.48;8.63;;;;;;;12.13;100.00;94126.59;5147655;27;20208;-76
2023/04/18 06:30:01;;;;;;;18.98;9.75;;;;;;;12.22;96.54;94124.47;5141605;27;20216;-77
2023/04/18 06:32:27;;;;;;;10.35;6.00;;;;;;;12.49;91.75;94123.59;5134996;27;20587;-76
2023/04/18 06:34:56;;;;;;;14.50;6.93;;;;;;;12.80;89.33;94118.13;5146161;27;20201;-75
2023/04/18 06:37:23;;;;;;;13.18;7.22;;;;;;;12.22;88.50;94127.97;5139278;27;20685;-74
2023/04/18 06:39:50;;;;;;;9.65;5.43;;;;;;;12.26;89.99;94119.94;5139958;27;20204;-75
2023/04/18 06:42:16;;;;;;;12.60;6.78;;;;;;;11.89;88.40;94128.28;5145593;27;20686;-77
2023/04/18 06:44:43;;;;;;;12.07;6.70;;;;;;;11.55;89.29;94128.88;5145100;27;20203;-77
2023/04/18 06:47:11;;;;;;;13.05;7.78;;;;;;;11.52;91.02;94135.00;5138488;27;20263;-77
2023/04/18 06:49:37;;;;;;;11.25;6.75;;;;;;;11.65;90.42;94133.81;5138978;27;20243;-75
2023/04/18 06:52:06;;;;;;;14.05;8.20;;;;;;;11.51;91.39;94133.41;5138771;27;20207;-78
2023/04/18 06:54:33;;;;;;;12.10;6.70;;;;;;;11.49;89.56;94130.25;5138786;27;20870;-76
2023/04/18 06:57:00;;;;;;;13.27;7.57;;;;;;;11.34;90.45;94134.50;5145304;27;20200;-76
2023/04/18 06:59:27;;;;;;;15.27;7.15;;;;;;;11.47;90.71;94138.75;5145117;27;20211;-76
2023/04/18 07:01:54;;;;;;;15.35;7.68;;;;;;;11.69;90.12;94124.63;5139041;27;20284;-75
2023/04/18 07:04:21;;;;;;;12.77;6.80;;;;;;;12.01;89.14;94135.59;5137938;27;20197;-76
2023/04/18 07:06:48;;;;;;;14.93;7.15;;;;;;;12.03;88.36;94134.09;5139121;27;20845;-76
2023/04/18 07:09:16;;;;;;;15.23;7.60;;;;;;;12.19;87.62;94130.59;5138179;27;20635;-75
2023/04/18 07:11:43;;;;;;;12.40;6.95;;;;;;;12.08;87.74;94136.56;5143955;27;20237;-75
2023/04/18 07:14:10;;;;;;;13.63;7.45;;;;;;;12.31;88.13;94134.03;5144886;27;20287;-75
2023/04/18 07:16:37;;;;;;;13.75;7.03;;;;;;;12.52;85.36;94138.41;5131607;27;20232;-75
2023/04/18 07:19:05;;;;;;;12.25;6.70;;;;;;;12.49;84.70;94139.91;5134139;27;20214;-74
2023/04/18 07:21:31;;;;;;;12.82;7.25;;;;;;;12.81;84.30;94135.22;5141770;27;20193;-74
2023/04/18 07:23:58;;;;;;;12.55;6.47;;;;;;;12.70;85.41;94128.75;5144838;27;20204;-74
2023/04/18 07:26:27;;;;;;;12.77;7.10;;;;;;;13.01;85.73;94133.31;5141729;27;20205;-74
2023/04/18 07:28:53;;;;;;;9.60;5.95;;;;;;;13.19;82.33;94134.53;5138134;27;20605;-74
2023/04/18 07:31:20;;;;;;;10.25;5.45;;;;;;;13.32;81.81;94138.72;5143664;27;20594;-75
2023/04/18 07:33:47;;;;;;;11.75;6.25;;;;;;;13.51;79.67;94136.03;5137862;27;20220;-74
2023/04/18 07:36:14;;;;;;;10.02;5.43;;;;;;;13.49;76.91;94132.88;5141712;27;20200;-75
2023/04/18 07:38:41;;;;;;;5.95;4.22;;;;;;;13.75;73.51;94134.16;5145424;27;20571;-75
2023/04/18 07:41:08;;;;;;;10.60;7.22;;;;;;;13.39;76.00;94133.41;5142642;27;20212;-75
2023/04/18 07:43:37;;;;;;;9.70;5.30;;;;;;;13.67;74.86;94141.38;5137783;27;20544;-74
2023/04/18 07:46:04;;;;;;;7.85;4.15;;;;;;;13.57;74.58;94138.44;5139370;27;20292;-75
2023/04/18 07:48:31;;;;;;;10.00;5.40;;;;;;;13.35;74.79;94135.28;5144467;27;20603;-74
2023/04/18 07:50:58;;;;;;;7.93;4.95;;;;;;;13.15;76.71;94139.91;5142690;27;20690;-74
2023/04/18 07:53:25;;;;;;;8.77;5.50;;;;;;;13.16;74.24;94141.47;5137384;27;20204;-73
2023/04/18 07:55:53;;;;;;;12.52;6.03;;;;;;;13.44;73.68;94141.31;5138717;27;20221;-74
2023/04/18 07:58:19;;;;;;;11.60;5.25;;;;;;;13.72;73.92;94143.81;5144624;27;20205;-75
2023/04/18 08:00:48;;;;;;;10.98;4.68;;;;;;;13.79;70.91;94145.91;5143788;27;20203;-74
2023/04/18 08:03:15;;;;;;;9.75;4.88;;;;;;;13.68;70.62;94145.66;5137808;27;20196;-74
2023/04/18 08:05:42;;;;;;;7.85;4.20;;;;;;;13.76;70.86;94141.16;5138136;27;20209;-74
2023/04/18 08:08:11;;;;;;;8.35;4.05;;;;;;;13.80;70.16;94147.47;5130601;27;20212;-74
2023/04/18 08:10:38;;;;;;;5.75;3.25;;;;;;;13.99;68.17;94150.16;5143476;27;20724;-74
2023/04/18 08:13:05;;;;;;;7.18;3.95;;;;;;;13.84;68.42;94145.59;5130452;27;20196;-74
2023/04/18 08:15:32;;;;;;;7.40;4.22;;;;;;;14.25;66.57;94149.47;5129562;27;20204;-74
2023/04/18 08:18:01;;;;;;;4.40;2.67;;;;;;;14.09;66.88;94144.13;5136436;27;20208;-75
2023/04/18 08:20:27;;;;;;;7.38;3.75;;;;;;;14.10;65.95;94142.97;5136604;27;20193;-74
2023/04/18 08:22:55;;;;;;;6.82;3.78;;;;;;;14.56;65.72;94143.03;5143575;27;20287;-75
2023/04/18 08:25:21;;;;;;;6.53;4.22;;;;;;;14.76;65.04;94149.19;5130618;27;20205;-74
2023/04/18 08:27:48;;;;;;;8.88;4.80;;;;;;;14.99;64.12;94151.88;5138029;27;20208;-74
2023/04/18 08:30:15;;;;;;;14.65;4.40;;;;;;;15.38;63.18;94147.78;5144804;27;20220;-75
2023/04/18 08:32:42;;;;;;;6.57;4.13;;;;;;;16.05;62.88;94136.91;5130671;27;20193;-75
2023/04/18 08:35:10;;;;;;;7.22;3.97;;;;;;;16.01;60.60;94136.06;5143566;27;20196;-74
2023/04/18 08:37:37;;;;;;;5.55;3.65;;;;;;;15.23;61.11;94144.06;5138426;27;20206;-75
2023/04/18 08:40:06;;;;;;;7.65;5.28;;;;;;;15.61;60.53;94148.50;5136801;27;20211;-74
2023/04/18 08:42:33;;;;;;;7.78;4.60;;;;;;;15.60;62.26;94149.63;5141861;27;20197;-74
2023/04/18 08:45:00;;;;;;;6.93;4.00;;;;;;;16.05;60.42;94136.91;5143529;27;20196;-72
2023/04/18 08:47:29;;;;;;;5.22;3.38;;;;;;;15.85;58.25;94143.72;5139453;27;20200;-75
2023/04/18 08:49:57;;;;;;;3.65;2.75;;;;;;;15.25;59.36;94140.97;5133841;27;20243;-74
2023/04/18 08:52:28;;;;;;;5.00;2.55;;;;;;;15.35;59.35;94140.31;5130091;27;20695;-75
2023/04/18 08:54:56;;;;;;;3.38;2.30;;;;;;;15.23;58.93;94135.09;5143053;27;20217;-75
2023/04/18 08:57:25;;;;;;;4.82;3.38;;;;;;;15.17;59.36;94144.75;5130060;27;20674;-74
2023/04/18 08:59:54;;;;;;;5.70;4.38;;;;;;;15.32;58.98;94138.31;5133798;27;20208;-74
2023/04/18 09:02:22;;;;;;;4.30;2.55;;;;;;;14.91;59.76;94129.94;5138953;27;20213;-73
2023/04/18 09:04:51;;;;;;;7.50;3.47;;;;;;;15.31;60.21;94134.00;5143640;27;20540;-73
2023/04/18 09:07:20;;;;;;;5.25;3.50;;;;;;;15.48;58.37;94130.75;5141731;27;20300;-74
2023/04/18 09:09:49;;;;;;;5.20;3.33;;;;;;;16.10;59.86;94125.66;5136473;27;20204;-73
2023/04/18 09:12:21;;;;;;;8.00;4.25;;;;;;;16.74;57.83;94129.00;5137218;27;20317;-74
2023/04/18 09:14:50;;;;;;;6.32;3.90;;;;;;;17.55;56.83;94123.28;5129479;27;20219;-74
2023/04/18 09:17:31;;;;;;;6.30;3.50;;;;;;;17.93;56.59;94126.59;5143266;27;20196;-75
2023/04/18 09:19:59;;;;;;;4.95;3.50;;;;;;;16.88;54.52;94134.59;5139515;27;20196;-74
2023/04/18 09:22:28;;;;;;;6.13;3.70;;;;;;;17.43;55.99;94126.34;5135642;27;20651;-73
2023/04/18 09:24:57;;;;;;;10.30;4.18;;;;;;;17.75;56.02;94127.31;5138969;27;20197;-74
2023/04/18 09:27:24;;;;;;;5.57;3.65;;;;;;;17.18;54.72;94118.00;5143351;27;20193;-74
2023/04/18 09:29:53;;;;;;;5.10;3.28;;;;;;;16.27;56.26;94132.44;5133149;27;20197;-75
2023/04/18 09:32:23;;;;;;;4.03;3.00;;;;;;;15.90;56.81;94130.50;5129071;27;20201;-74
2023/04/18 09:34:53;;;;;;;7.57;4.78;;;;;;;15.64;58.55;94134.09;5140619;27;20192;-74
2023/04/18 09:37:21;;;;;;;8.10;4.93;;;;;;;16.44;57.79;94125.56;5135310;27;20200;-74
2023/04/18 09:39:48;;;;;;;7.60;5.20;;;;;;;15.86;58.39;94137.06;5136657;27;20605;-73
2023/04/18 09:42:17;;;;;;;7.18;5.13;;;;;;;15.74;58.63;94142.78;5142129;27;20258;-74
2023/04/18 09:45:15;;;;;;;5.68;3.25;;;;;;;15.44;58.82;94135.38;5142351;27;20584;-75
2023/04/18 09:47:42;;;;;;;7.80;5.30;;;;;;;15.35;61.62;94136.78;5084187;28;20646;-73
2023/04/18 09:50:11;;;;;;;10.52;5.20;;;;;;;15.52;59.80;94131.59;5132443;27;20200;-74
2023/04/18 09:52:39;;;;;;;6.47;4.60;;;;;;;15.57;58.46;94128.56;5137579;27;20659;-74
2023/04/18 09:55:09;;;;;;;3.35;2.00;;;;;;;15.40;62.55;94134.53;5128272;28;20216;-73
2023/04/18 09:57:40;;;;;;;5.90;3.17;;;;;;;14.48;67.38;94127.72;5141536;27;20287;-74
2023/04/18 10:00:12;;;;;;;4.28;2.65;;;;;;;14.40;68.13;94136.91;5136080;27;20276;-74
2023/04/18 10:02:52;;;;;;;3.97;2.95;;;;;;;14.56;66.65;94130.19;5135851;27;20197;-73
2023/04/18 10:05:20;;;;;;;4.57;3.10;;;;;;;14.53;67.56;94141.03;5137077;27;20681;-74
2023/04/18 10:07:49;;;;;;;4.63;2.75;;;;;;;13.87;70.47;94139.44;5132784;27;20216;-74
2023/04/18 10:10:17;;;;;;;3.40;1.92;;;;;;;13.79;70.61;94143.19;5136765;27;20203;-76
2023/04/18 10:12:47;;;;;;;4.03;3.00;;;;;;;13.88;70.86;94143.72;5136819;27;20192;-73
2023/04/18 10:15:16;;;;;;;6.07;3.67;;;;;;;13.96;70.39;94126.38;5137598;27;20699;-75
2023/04/18 10:17:44;;;;;;;4.97;3.00;;;;;;;13.92;69.81;94141.09;5128350;28;20695;-74
2023/04/18 10:20:18;;;;;;;5.43;3.00;;;;;;;14.18;69.85;94130.28;5140211;27;20203;-74
2023/04/18 10:22:45;;;;;;;4.95;3.15;;;;;;;14.52;68.97;94131.28;5142548;27;20197;-73
2023/04/18 10:25:12;;;;;;;2.95;1.80;;;;;;;14.28;68.46;94129.69;5128533;28;20203;-75
2023/04/18 10:27:58;;;;;;;2.88;2.00;;;;;;;13.96;69.28;94129.09;5142021;27;20205;-75
2023/04/18 10:30:56;;;;;;;4.70;2.38;;;;;;;14.48;69.20;94122.28;5135177;27;20231;-75
2023/04/18 10:33:31;;;;;;;4.50;2.33;;;;;;;15.10;67.73;94114.63;5135450;27;20297;-74
2023/04/18 10:36:13;;;;;;;2.97;1.80;;;;;;;15.11;66.58;94119.72;5136490;27;20291;-74
2023/04/18 10:38:45;;;;;;;5.47;2.60;;;;;;;15.31;65.76;94123.09;5145514;27;20197;-75
2023/04/18 10:41:20;;;;;;;2.78;2.20;;;;;;;15.78;63.95;94116.31;5139208;27;20188;-75
2023/04/18 10:44:17;;;;;;;2.65;1.52;;;;;;;16.41;62.53;94115.38;5135272;27;20195;-74
2023/04/18 10:47:30;;;;;;;2.50;1.60;;;;;;;16.79;61.60;94112.25;5135486;27;20258;-74
2023/04/18 10:50:03;;;;;;;2.50;1.55;;;;;;;15.58;64.26;94116.47;5138982;27;20236;-74
2023/04/18 10:52:30;;;;;;;2.35;1.83;;;;;;;15.36;64.15;94120.06;5142907;27;20280;-74
2023/04/18 10:55:18;;;;;;;1.92;1.50;;;;;;;15.44;65.67;94113.56;5135157;27;20216;-74
2023/04/18 10:57:46;;;;;;;2.08;1.40;;;;;;;15.23;65.51;94105.06;5133050;27;20268;-74
2023/04/18 11:00:17;;;;;;;2.10;1.45;;;;;;;15.11;65.18;94111.53;5132081;27;20253;-75
2023/04/18 11:02:52;;;;;;;2.75;1.75;;;;;;;15.39;64.86;94121.25;5145967;27;20614;-75
2023/04/18 11:05:21;;;;;;;2.33;1.73;;;;;;;15.54;64.34;94104.69;5143926;27;20284;-74
2023/04/18 11:07:48;;;;;;;2.53;1.60;;;;;;;15.70;63.82;94106.47;5145493;27;20279;-73
2023/04/18 11:10:18;;;;;;;2.50;1.48;;;;;;;15.61;63.45;94096.63;5141176;27;20208;-74
2023/04/18 11:12:48;;;;;;;3.80;1.60;;;;;;;15.57;63.95;94093.06;5111498;28;20217;-75
2023/04/18 11:15:20;;;;;;;2.33;1.70;;;;;;;16.07;62.62;94084.63;5110881;28;20277;-74
2023/04/18 11:17:55;;;;;;;4.03;2.22;;;;;;;16.69;61.31;94082.84;5111097;28;20202;-74
2023/04/18 11:20:22;;;;;;;2.75;2.40;;;;;;;16.74;59.95;94077.03;5110140;28;20189;-74
2023/04/18 11:22:51;;;;;;;2.80;1.85;;;;;;;16.60;59.74;94079.63;5101427;28;20251;-73
2023/04/18 11:25:21;;;;;;;4.20;2.20;;;;;;;16.23;60.27;94072.31;5111041;28;20205;-75
2023/04/18 11:27:50;;;;;;;2.80;1.70;;;;;;;16.96;59.50;94069.75;5110057;28;20190;-77
2023/04/18 11:30:18;;;;;;;4.78;1.90;;;;;;;16.84;58.63;94067.31;5110729;28;20198;-75
2023/04/18 11:32:45;;;;;;;3.75;2.67;;;;;;;16.63;59.23;94062.50;5101627;28;20276;-75